Time;durP1;ratioP1;P1;durP2;ratioP2;P2;SDS_P1;SDS_P2;PMS_P1;PMS_P2;Temp;Humidity;BMP_temperature;BMP_pressure;BME280_temperature;BME280_humidity;BME280_pressure;Samples;Min_cycle;Max_cycle;Signal;HPM_P1;HPM_P2
2024/01/13 00:00:23;;;;;;;7.60;2.60;;;;;;;-8.40;100.00;97425.47;5096932;28;20109;-54
2024/01/13 00:02:50;;;;;;;5.88;3.15;;;;;;;-8.39;100.00;97439.56;5096624;28;20056;-53
2024/01/13 00:05:16;;;;;;;5.97;3.15;;;;;;;-8.39;100.00;97464.28;5096880;28;20048;-57
2024/01/13 00:07:42;;;;;;;11.85;3.97;;;;;;;-8.49;100.00;97474.25;5096463;28;20060;-52
2024/01/13 00:10:08;;;;;;;9.13;2.53;;;;;;;-8.49;100.00;97506.91;5096814;28;20112;-58
2024/01/13 00:12:35;;;;;;;4.25;2.75;;;;;;;-8.64;100.00;97507.06;5096466;28;20047;-56
2024/01/13 00:15:02;;;;;;;7.15;2.75;;;;;;;-8.61;100.00;97522.44;5096809;28;20104;-55
2024/01/13 00:17:28;;;;;;;4.30;3.00;;;;;;;-8.57;100.00;97537.53;5095517;28;20405;-57
2024/01/13 00:19:54;;;;;;;9.57;3.13;;;;;;;-8.49;100.00;97519.41;5096473;28;20358;-52
2024/01/13 00:22:20;;;;;;;4.60;2.97;;;;;;;-8.58;100.00;97512.03;5096517;28;20059;-57
2024/01/13 00:24:47;;;;;;;3.67;2.25;;;;;;;-8.72;100.00;97495.19;5096365;28;20066;-55
2024/01/13 00:27:13;;;;;;;6.78;3.72;;;;;;;-8.52;100.00;97525.28;5096472;28;20077;-54
2024/01/13 00:29:39;;;;;;;7.50;2.22;;;;;;;-8.97;100.00;97500.72;5096249;28;20048;-59
2024/01/13 00:32:06;;;;;;;5.75;2.58;;;;;;;-8.72;100.00;97513.78;5096465;28;20055;-55
2024/01/13 00:34:32;;;;;;;3.45;2.40;;;;;;;-8.78;100.00;97517.53;5095996;28;20362;-58
2024/01/13 00:36:58;;;;;;;6.38;2.95;;;;;;;-8.99;100.00;97521.47;5096155;28;20135;-52
2024/01/13 00:39:24;;;;;;;6.90;2.75;;;;;;;-9.13;100.00;97522.09;5096252;28;20047;-58
2024/01/13 00:41:51;;;;;;;7.60;3.15;;;;;;;-8.98;100.00;97542.41;5096385;28;20135;-54
2024/01/13 00:44:17;;;;;;;10.77;4.18;;;;;;;-9.29;100.00;97510.00;5095978;28;20400;-56
2024/01/13 00:46:43;;;;;;;5.75;2.38;;;;;;;-9.29;100.00;97518.75;5096439;28;20139;-59
2024/01/13 00:49:10;;;;;;;3.88;2.25;;;;;;;-9.38;100.00;97511.66;5096053;28;20128;-52
2024/01/13 00:51:36;;;;;;;2.25;2.05;;;;;;;-9.26;100.00;97533.34;5096134;28;20052;-55
2024/01/13 00:54:06;;;;;;;4.40;2.15;;;;;;;-9.50;100.00;97515.41;5095917;28;20052;-56
2024/01/13 00:56:32;;;;;;;4.85;2.20;;;;;;;-9.73;100.00;97518.75;5095977;28;20055;-56
2024/01/13 00:58:58;;;;;;;5.28;2.17;;;;;;;-9.40;100.00;97537.66;5095824;28;20423;-56
2024/01/13 01:01:24;;;;;;;2.22;1.90;;;;;;;-9.15;100.00;97542.03;5095899;28;20117;-57
2024/01/13 01:03:50;;;;;;;5.40;2.53;;;;;;;-9.58;100.00;97525.84;5096061;28;20084;-52
2024/01/13 01:06:18;;;;;;;1.70;1.58;;;;;;;-9.55;100.00;97526.09;5095785;28;20063;-57
2024/01/13 01:08:44;;;;;;;1.80;1.27;;;;;;;-9.20;100.00;97534.06;5096094;28;20135;-51
2024/01/13 01:11:10;;;;;;;8.60;2.17;;;;;;;-9.67;100.00;97504.38;5095637;28;20340;-56
2024/01/13 01:13:36;;;;;;;2.92;1.20;;;;;;;-9.58;100.00;97521.31;5096086;28;20121;-57
2024/01/13 01:16:03;;;;;;;3.53;2.33;;;;;;;-9.49;100.00;97506.41;5095464;28;20087;-56
2024/01/13 01:18:30;;;;;;;4.43;1.63;;;;;;;-9.55;100.00;97494.25;5095356;28;20429;-55
2024/01/13 01:20:56;;;;;;;4.97;2.42;;;;;;;-9.51;100.00;97489.97;5095727;28;20399;-55
2024/01/13 01:23:24;;;;;;;3.92;1.65;;;;;;;-9.63;100.00;97481.53;5095629;28;20066;-55
2024/01/13 01:25:50;;;;;;;5.88;2.00;;;;;;;-9.61;100.00;97483.94;5095550;28;20070;-51
2024/01/13 01:28:16;;;;;;;4.43;1.98;;;;;;;-9.67;100.00;97490.34;5095379;28;20070;-57
2024/01/13 01:30:43;;;;;;;3.38;2.15;;;;;;;-9.71;100.00;97482.16;5098865;28;20086;-53
2024/01/13 01:33:09;;;;;;;2.08;1.40;;;;;;;-9.80;100.00;97486.44;5098792;28;20413;-58
2024/01/13 01:35:35;;;;;;;3.55;2.22;;;;;;;-9.56;100.00;97483.91;5098720;28;20047;-52
2024/01/13 01:38:01;;;;;;;6.20;2.33;;;;;;;-9.72;100.00;97470.75;5098700;28;20052;-52
2024/01/13 01:40:31;;;;;;;3.53;2.30;;;;;;;-9.77;100.00;97469.97;5099279;28;20135;-58
2024/01/13 01:42:57;;;;;;;4.30;2.20;;;;;;;-9.68;100.00;97489.56;5098645;28;20058;-54
2024/01/13 01:45:23;;;;;;;4.80;2.30;;;;;;;-9.93;100.00;97473.78;5099136;28;20059;-51
2024/01/13 01:47:52;;;;;;;2.95;2.15;;;;;;;-9.45;100.00;97503.22;5098823;28;20070;-57
2024/01/13 01:50:19;;;;;;;7.07;2.75;;;;;;;-9.79;100.00;97485.38;5098477;28;20338;-54
2024/01/13 01:52:45;;;;;;;3.65;2.10;;;;;;;-9.98;100.00;97461.34;5098923;28;20055;-56
2024/01/13 01:55:12;;;;;;;2.35;1.92;;;;;;;-10.15;100.00;97479.47;5098498;28;20412;-56
2024/01/13 01:57:39;;;;;;;5.35;2.97;;;;;;;-10.20;100.00;97477.63;5098516;28;20151;-53
2024/01/13 02:00:07;;;;;;;4.53;2.55;;;;;;;-9.81;100.00;97488.28;5098518;28;20108;-52
2024/01/13 02:02:34;;;;;;;2.10;1.73;;;;;;;-9.86;100.00;97491.00;5098759;28;20082;-57
2024/01/13 02:05:02;;;;;;;3.60;2.30;;;;;;;-9.63;100.00;97492.16;5098371;28;20363;-55
2024/01/13 02:07:29;;;;;;;9.52;2.83;;;;;;;-10.04;100.00;97483.66;5098797;28;20056;-52
2024/01/13 02:09:55;;;;;;;2.75;1.98;;;;;;;-9.97;100.00;97479.63;5098186;28;20139;-54
2024/01/13 02:12:21;;;;;;;4.30;1.92;;;;;;;-10.01;100.00;97472.50;5098646;28;20048;-53
2024/01/13 02:14:48;;;;;;;3.22;1.65;;;;;;;-9.95;100.00;97476.72;5098445;28;20063;-57
2024/01/13 02:17:14;;;;;;;3.17;1.95;;;;;;;-9.99;100.00;97489.72;5098237;28;20135;-55
2024/01/13 02:19:40;;;;;;;4.50;2.72;;;;;;;-9.66;100.00;97486.63;5098146;28;20180;-53
2024/01/13 02:22:07;;;;;;;6.10;2.50;;;;;;;-9.73;100.00;97497.53;5098203;28;20056;-56
2024/01/13 02:24:33;;;;;;;6.18;2.63;;;;;;;-9.74;100.00;97494.09;5098240;28;20453;-57
2024/01/13 02:26:59;;;;;;;5.00;2.03;;;;;;;-9.76;100.00;97501.53;5097937;28;20420;-54
2024/01/13 02:29:25;;;;;;;3.92;1.88;;;;;;;-9.93;100.00;97510.88;5098229;28;20436;-55
2024/01/13 02:31:51;;;;;;;7.22;2.72;;;;;;;-10.16;100.00;97497.22;5097973;28;20067;-57
2024/01/13 02:34:17;;;;;;;8.35;2.08;;;;;;;-10.19;100.00;97518.97;5097866;28;20134;-58
2024/01/13 02:36:43;;;;;;;3.47;2.00;;;;;;;-10.31;100.00;97510.56;5097819;28;20588;-56
2024/01/13 02:39:09;;;;;;;2.58;1.85;;;;;;;-10.11;100.00;97512.31;5098070;28;20113;-56
2024/01/13 02:41:35;;;;;;;21.85;2.30;;;;;;;-10.45;100.00;97511.13;5097308;28;20055;-57
2024/01/13 02:44:01;;;;;;;9.07;2.67;;;;;;;-10.41;100.00;97518.53;5097944;28;20189;-57
2024/01/13 02:46:27;;;;;;;3.38;2.08;;;;;;;-10.61;100.00;97501.63;5097735;28;20443;-53
2024/01/13 02:48:54;;;;;;;3.20;2.65;;;;;;;-10.74;100.00;97523.34;5097846;28;20094;-56
2024/01/13 02:51:20;;;;;;;7.53;1.85;;;;;;;-10.49;100.00;97539.22;5097551;28;20044;-56
2024/01/13 02:53:46;;;;;;;3.28;2.10;;;;;;;-10.69;100.00;97553.28;5097701;28;20052;-56
2024/01/13 02:56:13;;;;;;;6.75;2.47;;;;;;;-10.56;100.00;97567.84;5097882;28;20139;-53
2024/01/13 02:58:40;;;;;;;3.72;2.60;;;;;;;-10.83;100.00;97568.09;5097291;28;20104;-58
2024/01/13 03:01:07;;;;;;;1.75;1.52;;;;;;;-10.85;100.00;97599.34;5097751;28;20439;-51
2024/01/13 03:03:33;;;;;;;4.22;1.77;;;;;;;-10.76;100.00;97604.91;5097343;28;20058;-56
2024/01/13 03:05:59;;;;;;;7.10;2.25;;;;;;;-10.62;100.00;97619.22;5097756;28;20052;-58
2024/01/13 03:08:25;;;;;;;1.90;1.48;;;;;;;-10.79;100.00;97603.59;5097281;28;20097;-54
2024/01/13 03:10:51;;;;;;;7.70;2.92;;;;;;;-10.88;100.00;97620.28;5097690;28;20080;-53
2024/01/13 03:13:18;;;;;;;9.45;3.10;;;;;;;-10.79;100.00;97630.06;5097166;28;20060;-50
2024/01/13 03:15:44;;;;;;;16.60;3.53;;;;;;;-10.98;100.00;97632.44;5097417;28;20102;-51
2024/01/13 03:18:10;;;;;;;7.70;2.60;;;;;;;-11.25;100.00;97650.38;5097062;28;20051;-54
2024/01/13 03:20:36;;;;;;;5.38;2.53;;;;;;;-10.90;100.00;97684.84;5097243;28;20143;-54
2024/01/13 03:23:01;;;;;;;4.03;2.58;;;;;;;-10.98;100.00;97687.22;5097437;28;20117;-56
2024/01/13 03:25:27;;;;;;;4.22;1.77;;;;;;;-11.09;100.00;97710.22;5097176;28;20079;-56
2024/01/13 03:27:53;;;;;;;3.72;2.38;;;;;;;-11.02;100.00;97707.31;5097343;28;20055;-57
2024/01/13 03:30:20;;;;;;;5.18;2.05;;;;;;;-11.05;100.00;97702.56;5096997;28;20332;-56
2024/01/13 03:32:46;;;;;;;2.38;1.67;;;;;;;-10.90;100.00;97697.28;5097418;28;20421;-57
2024/01/13 03:35:12;;;;;;;4.88;1.55;;;;;;;-11.05;100.00;97692.75;5096889;28;20086;-57
2024/01/13 03:37:38;;;;;;;7.35;3.15;;;;;;;-11.09;100.00;97678.47;5097162;28;20052;-54
2024/01/13 03:40:05;;;;;;;8.93;2.38;;;;;;;-11.41;100.00;97705.06;5096698;28;20054;-58
2024/01/13 03:42:31;;;;;;;4.65;3.15;;;;;;;-11.05;100.00;97721.06;5097052;28;20052;-52
2024/01/13 03:44:57;;;;;;;7.45;3.03;;;;;;;-11.15;100.00;97733.22;5097039;28;20102;-50
2024/01/13 03:47:24;;;;;;;4.88;1.63;;;;;;;-11.30;100.00;97730.50;5096755;28;20088;-53
2024/01/13 03:49:50;;;;;;;7.20;2.50;;;;;;;-11.12;100.00;97745.13;5096697;28;20059;-57
2024/01/13 03:52:16;;;;;;;1.75;1.60;;;;;;;-11.21;100.00;97751.97;5095685;28;20051;-54
2024/01/13 03:54:42;;;;;;;5.47;2.38;;;;;;;-11.26;100.00;97744.00;5096838;28;20047;-52
2024/01/13 03:57:08;;;;;;;2.42;1.60;;;;;;;-11.40;100.00;97748.97;5096437;28;20054;-54
2024/01/13 03:59:34;;;;;;;3.58;1.67;;;;;;;-11.32;100.00;97769.66;5096875;28;20063;-56
2024/01/13 04:02:00;;;;;;;2.83;1.58;;;;;;;-11.03;100.00;97779.81;5096433;28;20048;-57
2024/01/13 04:04:26;;;;;;;2.60;1.88;;;;;;;-11.11;100.00;97777.69;5096935;28;20052;-57
2024/01/13 04:06:52;;;;;;;5.30;2.22;;;;;;;-11.35;100.00;97764.88;5096416;28;20056;-56
2024/01/13 04:09:18;;;;;;;7.25;2.85;;;;;;;-11.17;100.00;97769.72;5096854;28;20083;-58
2024/01/13 04:11:44;;;;;;;5.57;2.58;;;;;;;-11.24;100.00;97752.50;5096360;28;20079;-56
2024/01/13 04:14:10;;;;;;;3.25;2.03;;;;;;;-11.19;100.00;97755.16;5096492;28;20055;-54
2024/01/13 04:16:36;;;;;;;5.55;3.03;;;;;;;-11.42;100.00;97740.50;5096554;28;20056;-54
2024/01/13 04:19:01;;;;;;;5.85;3.22;;;;;;;-11.31;100.00;97759.88;5096324;28;20112;-53
2024/01/13 04:21:28;;;;;;;2.97;2.22;;;;;;;-11.49;100.00;97761.91;5096355;28;20409;-51
2024/01/13 04:23:54;;;;;;;4.50;2.17;;;;;;;-11.31;100.00;97771.25;5096149;28;20135;-54
2024/01/13 04:26:21;;;;;;;9.60;2.78;;;;;;;-11.51;100.00;97763.22;5096522;28;20048;-53
2024/01/13 04:28:47;;;;;;;10.30;2.95;;;;;;;-11.42;100.00;97773.03;5095984;28;20078;-53
2024/01/13 04:31:13;;;;;;;2.78;1.80;;;;;;;-11.51;100.00;97769.28;5096459;28;20200;-58
2024/01/13 04:33:39;;;;;;;5.20;2.00;;;;;;;-11.52;100.00;97780.13;5095992;28;20079;-54
2024/01/13 04:36:06;;;;;;;2.75;1.92;;;;;;;-11.64;100.00;97789.03;5096066;28;20051;-55
2024/01/13 04:38:32;;;;;;;6.93;2.90;;;;;;;-11.63;100.00;97813.63;5095616;28;20201;-57
2024/01/13 04:40:58;;;;;;;8.80;3.40;;;;;;;-11.67;100.00;97823.91;5095732;28;20142;-54
2024/01/13 04:43:24;;;;;;;9.05;3.03;;;;;;;-11.54;100.00;97830.63;5096136;28;20079;-57
2024/01/13 04:45:50;;;;;;;3.10;2.03;;;;;;;-11.54;100.00;97859.69;5096148;28;20136;-57
2024/01/13 04:48:17;;;;;;;6.53;2.78;;;;;;;-11.57;100.00;97862.84;5096183;28;20052;-54
2024/01/13 04:50:43;;;;;;;4.05;2.85;;;;;;;-11.79;100.00;97862.97;5095889;28;20113;-54
2024/01/13 04:53:09;;;;;;;4.30;2.78;;;;;;;-11.57;100.00;97889.28;5096239;28;20290;-55
2024/01/13 04:55:35;;;;;;;7.75;2.08;;;;;;;-11.55;100.00;97895.13;5095883;28;20129;-52
2024/01/13 04:58:01;;;;;;;3.05;2.10;;;;;;;-11.56;100.00;97912.06;5095929;28;20138;-51
2024/01/13 05:00:27;;;;;;;2.40;2.03;;;;;;;-11.67;100.00;97913.00;5095827;28;20059;-53
2024/01/13 05:02:53;;;;;;;11.02;3.22;;;;;;;-11.66;100.00;97923.34;5096871;28;20140;-55
2024/01/13 05:05:19;;;;;;;5.07;2.33;;;;;;;-11.56;100.00;97940.34;5099209;28;20056;-57
2024/01/13 05:07:45;;;;;;;8.07;3.20;;;;;;;-11.69;100.00;97949.50;5099765;28;20086;-53
2024/01/13 05:10:11;;;;;;;10.77;2.35;;;;;;;-11.49;100.00;97968.19;5099062;28;20051;-54
2024/01/13 05:12:38;;;;;;;1.80;1.45;;;;;;;-11.65;100.00;97959.31;5099276;28;20054;-57
2024/01/13 05:15:05;;;;;;;7.72;3.45;;;;;;;-11.61;100.00;97999.28;5099318;28;20139;-55
2024/01/13 05:17:31;;;;;;;6.20;2.78;;;;;;;-11.54;100.00;97994.56;5098947;28;20060;-53
2024/01/13 05:19:57;;;;;;;4.68;2.50;;;;;;;-11.39;100.00;98015.88;5099053;28;20062;-54
2024/01/13 05:22:24;;;;;;;10.23;3.15;;;;;;;-11.54;100.00;97991.94;5098868;28;20150;-56
2024/01/13 05:24:49;;;;;;;8.13;2.40;;;;;;;-11.49;100.00;98001.78;5099074;28;20384;-54
2024/01/13 05:27:15;;;;;;;5.32;2.30;;;;;;;-11.21;100.00;98017.34;5098870;28;20079;-54
2024/01/13 05:29:42;;;;;;;3.35;2.10;;;;;;;-11.55;100.00;97998.28;5099179;28;20055;-56
2024/01/13 05:32:08;;;;;;;1.95;1.85;;;;;;;-11.55;100.00;97994.84;5098835;28;20150;-57
2024/01/13 05:34:34;;;;;;;5.40;2.55;;;;;;;-11.40;100.00;98016.13;5099234;28;20047;-58
2024/01/13 05:37:00;;;;;;;4.13;3.15;;;;;;;-11.59;100.00;98013.06;5098806;28;20053;-54
2024/01/13 05:39:26;;;;;;;1.85;1.35;;;;;;;-11.82;100.00;98035.28;5099050;28;20452;-51
2024/01/13 05:41:52;;;;;;;2.58;2.10;;;;;;;-11.63;100.00;98059.53;5098747;28;20496;-52
2024/01/13 05:44:18;;;;;;;4.13;1.58;;;;;;;-11.47;100.00;98087.72;5098611;28;20052;-52
2024/01/13 05:46:44;;;;;;;4.10;2.45;;;;;;;-11.46;100.00;98076.13;5098997;28;20131;-55
2024/01/13 05:49:10;;;;;;;3.38;2.50;;;;;;;-11.67;100.00;98053.13;5098512;28;20074;-57
2024/01/13 05:51:36;;;;;;;3.50;1.88;;;;;;;-11.56;100.00;98073.38;5098474;28;20413;-57
2024/01/13 05:54:03;;;;;;;3.53;2.50;;;;;;;-11.87;100.00;98051.09;5098415;28;20431;-51
2024/01/13 05:56:30;;;;;;;4.75;2.03;;;;;;;-11.76;100.00;98070.47;5098693;28;20059;-56
2024/01/13 05:58:56;;;;;;;4.05;1.45;;;;;;;-11.76;100.00;98068.66;5098428;28;20055;-51
2024/01/13 06:01:24;;;;;;;6.72;2.08;;;;;;;-11.87;100.00;98054.53;5098725;28;20373;-51
2024/01/13 06:03:51;;;;;;;1.50;1.33;;;;;;;-11.57;100.00;98077.03;5098245;28;20062;-54
2024/01/13 06:06:17;;;;;;;2.28;1.85;;;;;;;-11.79;100.00;98073.63;5098699;28;20059;-56
2024/01/13 06:08:43;;;;;;;2.70;1.60;;;;;;;-12.03;100.00;98063.31;5098197;28;20364;-52
2024/01/13 06:11:09;;;;;;;6.72;2.88;;;;;;;-11.87;100.00;98085.47;5098407;28;20052;-50
2024/01/13 06:13:35;;;;;;;6.35;2.25;;;;;;;-11.81;100.00;98092.38;5098201;28;20404;-55
2024/01/13 06:16:01;;;;;;;2.92;2.22;;;;;;;-11.80;100.00;98093.97;5097231;28;20081;-58
2024/01/13 06:18:27;;;;;;;6.53;3.03;;;;;;;-12.00;100.00;98081.34;5098222;28;20431;-51
2024/01/13 06:20:54;;;;;;;6.30;2.90;;;;;;;-11.75;100.00;98098.53;5098115;28;20056;-52
2024/01/13 06:23:20;;;;;;;4.20;2.40;;;;;;;-12.05;100.00;98080.50;5098336;28;20054;-52
2024/01/13 06:25:45;;;;;;;1.83;1.70;;;;;;;-11.92;100.00;98093.34;5097858;28;20052;-54
2024/01/13 06:28:11;;;;;;;2.83;1.65;;;;;;;-11.92;100.00;98102.06;5098356;28;20106;-53
2024/01/13 06:30:37;;;;;;;0.98;0.98;;;;;;;-11.71;100.00;98107.56;5097943;28;20083;-58
2024/01/13 06:33:04;;;;;;;4.40;2.63;;;;;;;-11.83;100.00;98094.47;5098328;28;20044;-57
2024/01/13 06:35:30;;;;;;;4.47;2.13;;;;;;;-11.76;100.00;98081.88;5097756;28;20130;-52
2024/01/13 06:37:56;;;;;;;2.92;1.65;;;;;;;-11.95;100.00;98067.41;5098122;28;20044;-55
2024/01/13 06:40:22;;;;;;;1.77;1.38;;;;;;;-11.78;100.00;98080.53;5097846;28;20197;-57
2024/01/13 06:42:48;;;;;;;4.50;1.85;;;;;;;-11.64;100.00;98073.81;5097655;28;20143;-57
2024/01/13 06:45:14;;;;;;;1.42;1.38;;;;;;;-11.56;100.00;98064.63;5097283;28;20464;-58
2024/01/13 06:47:40;;;;;;;1.73;1.63;;;;;;;-11.71;100.00;98041.47;5097439;28;20409;-54
2024/01/13 06:50:06;;;;;;;9.68;2.97;;;;;;;-11.57;100.00;98047.97;5097691;28;20048;-54
2024/01/13 06:52:32;;;;;;;2.60;1.88;;;;;;;-11.48;100.00;98033.25;5097529;28;20427;-57
2024/01/13 06:55:00;;;;;;;8.63;3.70;;;;;;;-11.61;100.00;98012.50;5097601;28;20055;-54
2024/01/13 06:57:26;;;;;;;3.70;2.22;;;;;;;-11.54;100.00;98026.31;5097402;28;20052;-58
2024/01/13 06:59:51;;;;;;;12.55;2.75;;;;;;;-11.64;100.00;98012.97;5097744;28;20048;-57
2024/01/13 07:02:17;;;;;;;3.88;2.72;;;;;;;-11.69;100.00;98016.38;5097155;28;20062;-54
2024/01/13 07:04:44;;;;;;;3.42;2.17;;;;;;;-11.75;100.00;98019.22;5097614;28;20044;-56
2024/01/13 07:07:10;;;;;;;6.22;2.75;;;;;;;-11.77;100.00;98032.69;5097145;28;20105;-58
2024/01/13 07:09:37;;;;;;;3.08;2.05;;;;;;;-11.58;100.00;98014.63;5097020;28;20060;-57
2024/01/13 07:12:04;;;;;;;6.22;3.58;;;;;;;-11.48;100.00;98027.16;5097133;28;20074;-54
2024/01/13 07:14:30;;;;;;;6.93;2.63;;;;;;;-11.88;100.00;98010.66;5097013;28;20048;-53
2024/01/13 07:16:56;;;;;;;6.45;2.92;;;;;;;-11.78;100.00;97998.56;5097421;28;20056;-56
2024/01/13 07:19:22;;;;;;;4.13;1.60;;;;;;;-11.83;100.00;97993.22;5097002;28;20113;-57
2024/01/13 07:21:48;;;;;;;6.03;3.10;;;;;;;-11.85;100.00;97996.16;5097015;28;20134;-60
2024/01/13 07:24:14;;;;;;;9.48;2.88;;;;;;;-11.86;100.00;97976.03;5096647;28;20488;-57
2024/01/13 07:26:40;;;;;;;9.98;2.95;;;;;;;-11.60;100.00;97979.69;5097323;28;20147;-57
2024/01/13 07:29:06;;;;;;;5.35;2.40;;;;;;;-11.07;100.00;97951.56;5096996;28;20143;-55
2024/01/13 07:31:32;;;;;;;6.53;3.33;;;;;;;-10.77;100.00;97945.66;5097475;28;20050;-53
2024/01/13 07:33:58;;;;;;;3.08;2.38;;;;;;;-10.60;100.00;97945.47;5096900;28;20401;-55
2024/01/13 07:36:24;;;;;;;3.85;3.10;;;;;;;-10.38;100.00;97965.72;5097177;28;20048;-58
2024/01/13 07:38:50;;;;;;;5.82;2.65;;;;;;;-10.35;100.00;97997.81;5096745;28;20143;-57
2024/01/13 07:41:17;;;;;;;2.95;2.67;;;;;;;-10.36;100.00;98037.78;5096717;28;20083;-57
2024/01/13 07:43:44;;;;;;;5.47;2.85;;;;;;;-10.77;100.00;98069.31;5097024;28;20051;-58
2024/01/13 07:46:12;;;;;;;7.78;2.78;;;;;;;-11.02;100.00;98076.00;5096779;28;20417;-56
2024/01/13 07:48:38;;;;;;;3.33;2.50;;;;;;;-11.11;100.00;98074.88;5096985;28;20055;-52
2024/01/13 07:51:05;;;;;;;2.85;2.22;;;;;;;-10.55;100.00;98055.97;5096672;28;20377;-55
2024/01/13 07:53:31;;;;;;;7.13;3.35;;;;;;;-10.20;100.00;98071.25;5096990;28;20063;-58
2024/01/13 07:55:58;;;;;;;7.15;3.65;;;;;;;-10.33;100.00;98120.22;5096487;28;20048;-58
2024/01/13 07:58:24;;;;;;;3.22;2.80;;;;;;;-9.65;100.00;98138.88;5096744;28;20134;-52
2024/01/13 08:00:50;;;;;;;2.70;2.05;;;;;;;-9.37;100.00;98184.63;5096465;28;20213;-52
2024/01/13 08:03:16;;;;;;;4.20;2.38;;;;;;;-8.83;100.00;98230.25;5096926;28;20052;-55
2024/01/13 08:05:42;;;;;;;6.75;3.53;;;;;;;-9.36;100.00;98284.41;5096213;28;20135;-52
2024/01/13 08:08:08;;;;;;;18.15;4.32;;;;;;;-9.80;100.00;98314.63;5096370;28;20063;-54
2024/01/13 08:10:37;;;;;;;10.15;4.68;;;;;;;-9.33;100.00;98327.19;5096611;28;20146;-59
2024/01/13 08:13:04;;;;;;;15.70;4.88;;;;;;;-9.09;100.00;98337.44;5096298;28;20083;-56
2024/01/13 08:15:30;;;;;;;15.93;4.45;;;;;;;-9.09;100.00;98356.00;5096564;28;20399;-58
2024/01/13 08:17:56;;;;;;;5.63;3.53;;;;;;;-8.72;100.00;98377.19;5095925;28;20413;-54
2024/01/13 08:20:22;;;;;;;10.48;3.78;;;;;;;-9.31;100.00;98388.78;5096389;28;20062;-51
2024/01/13 08:22:49;;;;;;;10.00;4.90;;;;;;;-9.51;100.00;98386.75;5096158;28;20539;-52
2024/01/13 08:25:15;;;;;;;8.32;3.00;;;;;;;-9.85;100.00;98385.41;5096524;28;20139;-56
2024/01/13 08:27:41;;;;;;;4.78;3.38;;;;;;;-8.84;100.00;98387.22;5095953;28;20051;-57
2024/01/13 08:30:07;;;;;;;4.50;3.15;;;;;;;-8.74;100.00;98419.16;5096509;28;20143;-54
2024/01/13 08:32:33;;;;;;;6.63;3.28;;;;;;;-8.64;100.00;98437.00;5096031;28;20052;-57
2024/01/13 08:34:59;;;;;;;8.77;3.95;;;;;;;-8.87;100.00;98446.16;5096154;28;20059;-54
2024/01/13 08:37:26;;;;;;;8.68;5.00;;;;;;;-7.86;100.00;98453.78;5095847;28;20052;-52
2024/01/13 08:39:51;;;;;;;6.03;4.15;;;;;;;-7.76;100.00;98461.00;5099896;28;20151;-55
2024/01/13 08:42:17;;;;;;;12.23;4.20;;;;;;;-8.08;100.00;98479.78;5099932;28;20044;-53
2024/01/13 08:44:43;;;;;;;10.32;3.95;;;;;;;-7.68;100.00;98500.41;5099732;28;20066;-54
2024/01/13 08:47:10;;;;;;;10.02;3.95;;;;;;;-8.89;100.00;98499.56;5099676;28;20353;-55
2024/01/13 08:49:35;;;;;;;12.40;4.28;;;;;;;-8.42;100.00;98482.84;5099590;28;20055;-56
2024/01/13 08:52:02;;;;;;;8.43;4.15;;;;;;;-8.78;100.00;98492.47;5100016;28;20143;-53
2024/01/13 08:54:28;;;;;;;10.65;4.78;;;;;;;-9.11;100.00;98470.44;5099363;28;20425;-59
2024/01/13 08:56:54;;;;;;;8.70;3.22;;;;;;;-9.30;100.00;98464.69;5099825;28;20245;-57
2024/01/13 08:59:20;;;;;;;12.85;4.18;;;;;;;-9.60;100.00;98456.47;5099080;28;20484;-57
2024/01/13 09:01:46;;;;;;;6.45;3.83;;;;;;;-9.32;100.00;98439.47;5099756;28;20143;-58
2024/01/13 09:04:12;;;;;;;9.40;4.43;;;;;;;-8.99;100.00;98430.44;5099175;28;20197;-57
2024/01/13 09:06:38;;;;;;;13.50;3.42;;;;;;;-9.02;100.00;98438.91;5099412;28;20131;-54
2024/01/13 09:09:04;;;;;;;6.68;3.33;;;;;;;-8.63;100.00;98436.75;5099445;28;20482;-58
2024/01/13 09:11:31;;;;;;;7.47;3.55;;;;;;;-8.92;100.00;98444.28;5099304;28;20048;-58
2024/01/13 09:13:57;;;;;;;6.88;3.25;;;;;;;-8.79;100.00;98437.72;5099327;28;20052;-52
2024/01/13 09:16:23;;;;;;;4.15;2.78;;;;;;;-8.90;100.00;98441.34;5099217;28;20105;-54
2024/01/13 09:18:49;;;;;;;6.22;3.33;;;;;;;-8.75;100.00;98433.50;5099193;28;20051;-55
2024/01/13 09:21:16;;;;;;;5.80;2.88;;;;;;;-9.30;100.00;98430.19;5098887;28;20090;-54
2024/01/13 09:23:42;;;;;;;6.07;3.00;;;;;;;-9.67;100.00;98403.59;5099323;28;20048;-57
2024/01/13 09:26:08;;;;;;;18.90;3.75;;;;;;;-9.42;100.00;98373.03;5098813;28;20086;-58
2024/01/13 09:28:35;;;;;;;7.75;3.65;;;;;;;-9.47;100.00;98377.25;5099440;28;20082;-57
2024/01/13 09:31:01;;;;;;;6.55;2.67;;;;;;;-9.15;100.00;98349.88;5098873;28;20131;-54
2024/01/13 09:33:27;;;;;;;6.22;3.30;;;;;;;-9.73;100.00;98355.03;5099214;28;20074;-52
2024/01/13 09:35:53;;;;;;;9.88;3.58;;;;;;;-9.35;100.00;98331.94;5098767;28;20409;-54
2024/01/13 09:38:19;;;;;;;7.28;3.67;;;;;;;-9.41;100.00;98325.00;5098780;28;20134;-50
2024/01/13 09:40:44;;;;;;;13.63;3.58;;;;;;;-9.20;100.00;98333.88;5098930;28;20216;-52
2024/01/13 09:43:22;;;;;;;14.25;4.28;;;;;;;-9.19;100.00;98332.84;5098724;28;20441;-54
2024/01/13 09:45:49;;;;;;;14.75;4.20;;;;;;;-9.45;100.00;98334.53;5098948;28;20044;-51
2024/01/13 09:48:17;;;;;;;6.20;3.70;;;;;;;-8.96;100.00;98320.22;5098567;28;20109;-56
2024/01/13 09:50:45;;;;;;;6.70;3.28;;;;;;;-8.77;100.00;98314.19;5097509;28;20108;-57
2024/01/13 09:53:20;;;;;;;10.13;3.97;;;;;;;-8.78;100.00;98325.09;5098566;28;20328;-57
2024/01/13 09:55:46;;;;;;;9.93;4.10;;;;;;;-8.87;100.00;98348.69;5098926;28;20142;-57
2024/01/13 09:58:12;;;;;;;8.18;3.78;;;;;;;-9.01;100.00;98355.50;5098169;28;20062;-55
2024/01/13 10:00:40;;;;;;;11.63;3.95;;;;;;;-8.44;100.00;98345.94;5098543;28;20401;-52
2024/01/13 10:03:07;;;;;;;9.57;4.68;;;;;;;-8.80;100.00;98362.50;5098131;28;20054;-56
2024/01/13 10:05:33;;;;;;;7.32;3.63;;;;;;;-8.66;100.00;98362.88;5098090;28;20152;-56
2024/01/13 10:07:58;;;;;;;12.63;4.45;;;;;;;-8.65;100.00;98361.00;5098334;28;20145;-57
2024/01/13 10:10:25;;;;;;;6.05;3.30;;;;;;;-8.99;100.00;98369.34;5098337;28;20078;-52
2024/01/13 10:12:51;;;;;;;13.52;3.90;;;;;;;-8.32;100.00;98375.72;5098388;28;20052;-57
2024/01/13 10:15:18;;;;;;;8.57;3.40;;;;;;;-8.91;100.00;98410.56;5098088;28;20421;-56
2024/01/13 10:17:44;;;;;;;8.90;3.90;;;;;;;-8.30;100.00;98379.72;5098402;28;20135;-54
2024/01/13 10:20:13;;;;;;;11.13;3.38;;;;;;;-7.92;100.00;98395.50;5097984;28;20054;-55
2024/01/13 10:22:39;;;;;;;6.00;3.47;;;;;;;-8.43;100.00;98398.84;5098467;28;20200;-58
2024/01/13 10:25:06;;;;;;;7.22;3.63;;;;;;;-7.98;100.00;98393.91;5098005;28;20409;-56
2024/01/13 10:27:32;;;;;;;14.55;4.10;;;;;;;-8.02;100.00;98411.44;5098374;28;20298;-55
2024/01/13 10:30:01;;;;;;;13.02;4.97;;;;;;;-7.82;100.00;98400.84;5098230;28;20067;-54
2024/01/13 10:32:27;;;;;;;5.55;3.33;;;;;;;-8.05;100.00;98413.56;5097942;28;20147;-53
2024/01/13 10:34:54;;;;;;;4.72;2.30;;;;;;;-8.55;100.00;98406.22;5097740;28;20432;-51
2024/01/13 10:37:20;;;;;;;5.93;2.80;;;;;;;-9.03;100.00;98378.84;5097607;28;20436;-58
2024/01/13 10:39:46;;;;;;;5.65;2.78;;;;;;;-9.36;100.00;98372.81;5097897;28;20066;-58
2024/01/13 10:42:15;;;;;;;5.32;2.50;;;;;;;-9.19;100.00;98332.84;5097661;28;20063;-56
2024/01/13 10:44:43;;;;;;;5.60;2.65;;;;;;;-8.59;100.00;98326.22;5097953;28;20091;-58
2024/01/13 10:47:13;;;;;;;11.48;3.53;;;;;;;-7.99;100.00;98323.94;5097566;28;20148;-56
2024/01/13 10:49:41;;;;;;;2.92;2.38;;;;;;;-8.31;100.00;98362.16;5097837;28;20067;-57
2024/01/13 10:52:11;;;;;;;5.30;2.17;;;;;;;-8.21;100.00;98349.97;5097786;28;20048;-52
2024/01/13 10:54:39;;;;;;;6.70;2.95;;;;;;;-8.92;100.00;98366.47;5097573;28;20151;-57
2024/01/13 10:57:06;;;;;;;8.35;4.28;;;;;;;-8.55;100.00;98359.19;5097284;28;20085;-50
2024/01/13 10:59:35;;;;;;;6.13;3.17;;;;;;;-8.38;100.00;98342.22;5097044;28;20059;-58
2024/01/13 11:02:04;;;;;;;6.07;3.25;;;;;;;-7.92;100.00;98351.06;5097337;28;20058;-57
2024/01/13 11:04:31;;;;;;;5.90;3.22;;;;;;;-7.68;100.00;98371.84;5097219;28;20120;-54
2024/01/13 11:07:00;;;;;;;6.88;3.30;;;;;;;-7.32;100.00;98390.50;5097520;28;20173;-57
2024/01/13 11:09:28;;;;;;;7.55;3.70;;;;;;;-7.23;100.00;98404.84;5097318;28;20067;-56
2024/01/13 11:12:05;;;;;;;9.90;3.97;;;;;;;-7.41;100.00;98420.31;5097368;28;20055;-51
2024/01/13 11:14:36;;;;;;;5.53;2.50;;;;;;;-7.58;100.00;98425.91;5097223;28;20054;-55